sensor_id;sensor_type;location;lat;lon;timestamp;P1;durP1;ratioP1;P2;durP2;ratioP2
64932;SDS011;51446;53.850;10.662;2024-02-21T00:00:45;36.20;;;16.27;;
64932;SDS011;51446;53.850;10.662;2024-02-21T00:03:10;38.63;;;17.73;;
64932;SDS011;51446;53.850;10.662;2024-02-21T00:05:35;40.40;;;16.53;;
64932;SDS011;51446;53.850;10.662;2024-02-21T00:08:01;34.07;;;15.83;;
64932;SDS011;51446;53.850;10.662;2024-02-21T00:10:28;41.10;;;18.13;;
64932;SDS011;51446;53.850;10.662;2024-02-21T00:12:53;39.77;;;18.47;;
64932;SDS011;51446;53.850;10.662;2024-02-21T00:15:19;42.70;;;18.70;;
64932;SDS011;51446;53.850;10.662;2024-02-21T00:17:44;43.20;;;18.30;;
64932;SDS011;51446;53.850;10.662;2024-02-21T00:20:09;36.70;;;16.83;;
64932;SDS011;51446;53.850;10.662;2024-02-21T00:22:35;41.90;;;18.00;;
64932;SDS011;51446;53.850;10.662;2024-02-21T00:25:01;45.07;;;17.43;;
64932;SDS011;51446;53.850;10.662;2024-02-21T00:27:26;36.08;;;16.00;;
64932;SDS011;51446;53.850;10.662;2024-02-21T00:29:52;41.10;;;16.93;;
64932;SDS011;51446;53.850;10.662;2024-02-21T00:32:17;38.93;;;16.70;;
64932;SDS011;51446;53.850;10.662;2024-02-21T00:34:43;33.30;;;16.53;;
64932;SDS011;51446;53.850;10.662;2024-02-21T00:37:08;38.20;;;16.85;;
64932;SDS011;51446;53.850;10.662;2024-02-21T00:39:34;43.50;;;16.83;;
64932;SDS011;51446;53.850;10.662;2024-02-21T00:41:59;35.23;;;16.07;;
64932;SDS011;51446;53.850;10.662;2024-02-21T00:44:24;33.40;;;16.97;;
64932;SDS011;51446;53.850;10.662;2024-02-21T00:46:49;33.67;;;15.50;;
64932;SDS011;51446;53.850;10.662;2024-02-21T00:49:15;41.03;;;16.92;;
64932;SDS011;51446;53.850;10.662;2024-02-21T00:51:41;38.80;;;16.57;;
64932;SDS011;51446;53.850;10.662;2024-02-21T00:54:06;34.27;;;15.93;;
64932;SDS011;51446;53.850;10.662;2024-02-21T00:56:31;35.23;;;15.67;;
64932;SDS011;51446;53.850;10.662;2024-02-21T00:58:56;44.00;;;16.67;;
64932;SDS011;51446;53.850;10.662;2024-02-21T01:01:22;33.87;;;16.23;;
64932;SDS011;51446;53.850;10.662;2024-02-21T01:03:49;35.67;;;16.30;;
64932;SDS011;51446;53.850;10.662;2024-02-21T01:06:14;35.80;;;16.57;;
64932;SDS011;51446;53.850;10.662;2024-02-21T01:08:39;35.50;;;15.87;;
64932;SDS011;51446;53.850;10.662;2024-02-21T01:11:05;40.73;;;16.03;;
64932;SDS011;51446;53.850;10.662;2024-02-21T01:13:30;35.33;;;16.33;;
64932;SDS011;51446;53.850;10.662;2024-02-21T01:15:55;35.50;;;16.03;;
64932;SDS011;51446;53.850;10.662;2024-02-21T01:18:20;34.37;;;15.70;;
64932;SDS011;51446;53.850;10.662;2024-02-21T01:20:46;36.93;;;16.60;;
64932;SDS011;51446;53.850;10.662;2024-02-21T01:23:11;39.40;;;16.87;;
64932;SDS011;51446;53.850;10.662;2024-02-21T01:25:36;41.93;;;17.23;;
64932;SDS011;51446;53.850;10.662;2024-02-21T01:28:02;36.90;;;17.47;;
64932;SDS011;51446;53.850;10.662;2024-02-21T01:30:27;37.90;;;16.93;;
64932;SDS011;51446;53.850;10.662;2024-02-21T01:32:52;39.73;;;17.27;;
64932;SDS011;51446;53.850;10.662;2024-02-21T01:35:17;38.23;;;18.20;;
64932;SDS011;51446;53.850;10.662;2024-02-21T01:37:43;40.80;;;18.27;;
64932;SDS011;51446;53.850;10.662;2024-02-21T01:40:08;44.63;;;19.43;;
64932;SDS011;51446;53.850;10.662;2024-02-21T01:42:37;44.47;;;18.38;;
64932;SDS011;51446;53.850;10.662;2024-02-21T01:45:03;45.45;;;17.45;;
64932;SDS011;51446;53.850;10.662;2024-02-21T01:47:29;41.27;;;18.93;;
64932;SDS011;51446;53.850;10.662;2024-02-21T01:49:54;38.53;;;18.40;;
64932;SDS011;51446;53.850;10.662;2024-02-21T01:52:20;35.72;;;18.77;;
64932;SDS011;51446;53.850;10.662;2024-02-21T01:54:45;42.43;;;18.80;;
64932;SDS011;51446;53.850;10.662;2024-02-21T01:57:11;43.67;;;19.52;;
64932;SDS011;51446;53.850;10.662;2024-02-21T01:59:37;43.57;;;17.63;;
64932;SDS011;51446;53.850;10.662;2024-02-21T02:02:02;39.70;;;18.00;;
64932;SDS011;51446;53.850;10.662;2024-02-21T02:04:27;42.67;;;17.67;;
64932;SDS011;51446;53.850;10.662;2024-02-21T02:06:54;43.17;;;18.80;;
64932;SDS011;51446;53.850;10.662;2024-02-21T02:09:20;44.28;;;19.50;;
64932;SDS011;51446;53.850;10.662;2024-02-21T02:11:45;42.20;;;18.27;;
64932;SDS011;51446;53.850;10.662;2024-02-21T02:14:11;40.93;;;19.10;;
64932;SDS011;51446;53.850;10.662;2024-02-21T02:16:36;44.50;;;18.97;;
64932;SDS011;51446;53.850;10.662;2024-02-21T02:19:01;44.13;;;19.50;;
64932;SDS011;51446;53.850;10.662;2024-02-21T02:21:29;42.40;;;19.07;;
64932;SDS011;51446;53.850;10.662;2024-02-21T02:23:59;47.10;;;19.05;;
64932;SDS011;51446;53.850;10.662;2024-02-21T02:26:24;43.93;;;18.17;;
64932;SDS011;51446;53.850;10.662;2024-02-21T02:28:50;35.90;;;17.80;;
64932;SDS011;51446;53.850;10.662;2024-02-21T02:31:15;37.03;;;17.10;;
64932;SDS011;51446;53.850;10.662;2024-02-21T02:33:42;40.20;;;17.57;;
64932;SDS011;51446;53.850;10.662;2024-02-21T02:36:08;36.70;;;17.42;;
64932;SDS011;51446;53.850;10.662;2024-02-21T02:38:34;34.70;;;17.35;;
64932;SDS011;51446;53.850;10.662;2024-02-21T02:40:59;31.30;;;15.75;;
64932;SDS011;51446;53.850;10.662;2024-02-21T02:43:24;31.17;;;15.77;;
64932;SDS011;51446;53.850;10.662;2024-02-21T02:45:49;35.30;;;15.93;;
64932;SDS011;51446;53.850;10.662;2024-02-21T02:48:15;34.70;;;15.57;;
64932;SDS011;51446;53.850;10.662;2024-02-21T02:50:40;31.37;;;15.73;;
64932;SDS011;51446;53.850;10.662;2024-02-21T02:53:05;29.37;;;15.73;;
64932;SDS011;51446;53.850;10.662;2024-02-21T02:55:30;31.77;;;15.90;;
64932;SDS011;51446;53.850;10.662;2024-02-21T02:57:56;31.80;;;15.13;;
64932;SDS011;51446;53.850;10.662;2024-02-21T03:00:21;35.53;;;15.40;;
64932;SDS011;51446;53.850;10.662;2024-02-21T03:02:48;33.83;;;15.10;;
64932;SDS011;51446;53.850;10.662;2024-02-21T03:05:15;31.17;;;14.50;;
64932;SDS011;51446;53.850;10.662;2024-02-21T03:07:43;26.67;;;14.25;;
64932;SDS011;51446;53.850;10.662;2024-02-21T03:10:09;31.08;;;14.23;;
64932;SDS011;51446;53.850;10.662;2024-02-21T03:12:35;28.00;;;14.35;;
64932;SDS011;51446;53.850;10.662;2024-02-21T03:15:01;31.33;;;15.67;;
64932;SDS011;51446;53.850;10.662;2024-02-21T03:17:26;29.48;;;15.93;;
64932;SDS011;51446;53.850;10.662;2024-02-21T03:19:54;33.90;;;16.00;;
64932;SDS011;51446;53.850;10.662;2024-02-21T03:22:20;33.80;;;17.13;;
64932;SDS011;51446;53.850;10.662;2024-02-21T03:24:46;34.83;;;17.20;;
64932;SDS011;51446;53.850;10.662;2024-02-21T03:27:11;30.17;;;16.50;;
64932;SDS011;51446;53.850;10.662;2024-02-21T03:29:36;28.60;;;14.83;;
64932;SDS011;51446;53.850;10.662;2024-02-21T03:32:02;37.60;;;16.80;;
64932;SDS011;51446;53.850;10.662;2024-02-21T03:34:27;32.80;;;16.37;;
64932;SDS011;51446;53.850;10.662;2024-02-21T03:36:52;34.33;;;15.93;;
64932;SDS011;51446;53.850;10.662;2024-02-21T03:39:18;30.65;;;15.30;;
64932;SDS011;51446;53.850;10.662;2024-02-21T03:41:43;31.35;;;15.63;;
64932;SDS011;51446;53.850;10.662;2024-02-21T03:44:08;29.85;;;15.65;;
64932;SDS011;51446;53.850;10.662;2024-02-21T03:46:33;33.87;;;16.07;;
64932;SDS011;51446;53.850;10.662;2024-02-21T03:48:59;33.70;;;16.70;;
64932;SDS011;51446;53.850;10.662;2024-02-21T03:51:25;36.27;;;17.17;;
64932;SDS011;51446;53.850;10.662;2024-02-21T03:53:50;39.17;;;17.57;;
64932;SDS011;51446;53.850;10.662;2024-02-21T03:56:16;27.13;;;15.07;;
64932;SDS011;51446;53.850;10.662;2024-02-21T03:58:41;31.38;;;15.98;;
64932;SDS011;51446;53.850;10.662;2024-02-21T04:01:06;36.03;;;16.42;;
64932;SDS011;51446;53.850;10.662;2024-02-21T04:03:32;36.43;;;17.37;;
64932;SDS011;51446;53.850;10.662;2024-02-21T04:05:57;35.83;;;16.30;;
64932;SDS011;51446;53.850;10.662;2024-02-21T04:08:22;40.07;;;17.10;;
64932;SDS011;51446;53.850;10.662;2024-02-21T04:10:48;39.03;;;17.77;;
64932;SDS011;51446;53.850;10.662;2024-02-21T04:13:14;36.65;;;16.48;;
64932;SDS011;51446;53.850;10.662;2024-02-21T04:15:39;37.70;;;16.47;;
64932;SDS011;51446;53.850;10.662;2024-02-21T04:18:06;36.15;;;16.02;;
64932;SDS011;51446;53.850;10.662;2024-02-21T04:20:31;34.77;;;16.53;;
64932;SDS011;51446;53.850;10.662;2024-02-21T04:22:57;32.45;;;16.25;;
64932;SDS011;51446;53.850;10.662;2024-02-21T04:25:23;31.87;;;15.43;;
64932;SDS011;51446;53.850;10.662;2024-02-21T04:27:49;35.75;;;17.45;;
64932;SDS011;51446;53.850;10.662;2024-02-21T04:30:14;34.13;;;15.43;;
64932;SDS011;51446;53.850;10.662;2024-02-21T04:32:40;32.53;;;15.98;;
64932;SDS011;51446;53.850;10.662;2024-02-21T04:35:06;33.23;;;16.00;;
64932;SDS011;51446;53.850;10.662;2024-02-21T04:37:32;33.97;;;15.85;;
64932;SDS011;51446;53.850;10.662;2024-02-21T04:39:57;33.17;;;15.27;;
64932;SDS011;51446;53.850;10.662;2024-02-21T04:42:22;32.63;;;15.20;;
64932;SDS011;51446;53.850;10.662;2024-02-21T04:44:48;32.90;;;15.37;;
64932;SDS011;51446;53.850;10.662;2024-02-21T04:47:13;28.57;;;14.93;;
64932;SDS011;51446;53.850;10.662;2024-02-21T04:49:38;24.10;;;13.77;;
64932;SDS011;51446;53.850;10.662;2024-02-21T04:52:04;26.27;;;14.10;;
64932;SDS011;51446;53.850;10.662;2024-02-21T04:54:30;27.77;;;14.70;;
64932;SDS011;51446;53.850;10.662;2024-02-21T04:56:55;30.27;;;15.53;;
64932;SDS011;51446;53.850;10.662;2024-02-21T04:59:20;26.13;;;14.87;;
64932;SDS011;51446;53.850;10.662;2024-02-21T05:01:45;28.83;;;14.27;;
64932;SDS011;51446;53.850;10.662;2024-02-21T05:04:11;26.05;;;14.05;;
64932;SDS011;51446;53.850;10.662;2024-02-21T05:06:40;29.60;;;13.53;;
64932;SDS011;51446;53.850;10.662;2024-02-21T05:09:06;31.73;;;14.10;;
64932;SDS011;51446;53.850;10.662;2024-02-21T05:11:33;25.58;;;13.55;;
64932;SDS011;51446;53.850;10.662;2024-02-21T05:13:59;22.58;;;13.05;;
64932;SDS011;51446;53.850;10.662;2024-02-21T05:16:24;25.80;;;12.88;;
64932;SDS011;51446;53.850;10.662;2024-02-21T05:18:50;27.20;;;12.73;;
64932;SDS011;51446;53.850;10.662;2024-02-21T05:21:16;22.90;;;12.80;;
64932;SDS011;51446;53.850;10.662;2024-02-21T05:23:41;26.90;;;12.57;;
64932;SDS011;51446;53.850;10.662;2024-02-21T05:26:06;24.30;;;12.00;;
64932;SDS011;51446;53.850;10.662;2024-02-21T05:28:32;20.60;;;11.93;;
64932;SDS011;51446;53.850;10.662;2024-02-21T05:30:57;26.37;;;11.90;;
64932;SDS011;51446;53.850;10.662;2024-02-21T05:33:23;21.80;;;11.55;;
64932;SDS011;51446;53.850;10.662;2024-02-21T05:35:48;22.05;;;11.30;;
64932;SDS011;51446;53.850;10.662;2024-02-21T05:38:14;22.80;;;10.63;;
64932;SDS011;51446;53.850;10.662;2024-02-21T05:40:40;21.83;;;11.93;;
64932;SDS011;51446;53.850;10.662;2024-02-21T05:43:07;22.85;;;11.30;;
64932;SDS011;51446;53.850;10.662;2024-02-21T05:45:34;19.55;;;10.82;;
64932;SDS011;51446;53.850;10.662;2024-02-21T05:47:59;19.02;;;10.10;;
64932;SDS011;51446;53.850;10.662;2024-02-21T05:50:25;18.30;;;10.47;;
64932;SDS011;51446;53.850;10.662;2024-02-21T05:52:51;20.80;;;10.93;;
64932;SDS011;51446;53.850;10.662;2024-02-21T05:55:17;17.17;;;9.47;;
64932;SDS011;51446;53.850;10.662;2024-02-21T05:57:43;17.95;;;9.95;;
64932;SDS011;51446;53.850;10.662;2024-02-21T06:00:08;18.50;;;9.73;;
64932;SDS011;51446;53.850;10.662;2024-02-21T06:02:34;18.30;;;9.37;;
64932;SDS011;51446;53.850;10.662;2024-02-21T06:04:59;15.63;;;8.90;;
64932;SDS011;51446;53.850;10.662;2024-02-21T06:07:24;16.70;;;9.13;;
64932;SDS011;51446;53.850;10.662;2024-02-21T06:09:50;12.43;;;6.80;;
64932;SDS011;51446;53.850;10.662;2024-02-21T06:12:15;9.18;;;5.45;;
64932;SDS011;51446;53.850;10.662;2024-02-21T06:14:40;6.00;;;3.60;;
64932;SDS011;51446;53.850;10.662;2024-02-21T06:17:05;6.97;;;3.10;;
64932;SDS011;51446;53.850;10.662;2024-02-21T06:19:31;6.47;;;2.10;;
64932;SDS011;51446;53.850;10.662;2024-02-21T06:21:56;4.13;;;2.27;;
64932;SDS011;51446;53.850;10.662;2024-02-21T06:24:21;4.73;;;2.03;;
64932;SDS011;51446;53.850;10.662;2024-02-21T06:26:46;5.87;;;1.90;;
64932;SDS011;51446;53.850;10.662;2024-02-21T06:29:12;5.23;;;1.93;;
64932;SDS011;51446;53.850;10.662;2024-02-21T06:31:38;3.70;;;1.80;;
64932;SDS011;51446;53.850;10.662;2024-02-21T06:34:03;5.43;;;1.97;;
64932;SDS011;51446;53.850;10.662;2024-02-21T06:36:29;2.67;;;1.80;;
64932;SDS011;51446;53.850;10.662;2024-02-21T06:38:55;4.00;;;1.80;;
64932;SDS011;51446;53.850;10.662;2024-02-21T06:41:20;3.20;;;2.05;;
64932;SDS011;51446;53.850;10.662;2024-02-21T06:43:46;5.87;;;1.93;;
64932;SDS011;51446;53.850;10.662;2024-02-21T06:46:11;3.53;;;1.73;;
64932;SDS011;51446;53.850;10.662;2024-02-21T06:48:37;2.17;;;1.97;;
64932;SDS011;51446;53.850;10.662;2024-02-21T06:51:02;6.67;;;2.53;;
64932;SDS011;51446;53.850;10.662;2024-02-21T06:53:28;4.50;;;2.90;;
64932;SDS011;51446;53.850;10.662;2024-02-21T06:55:53;5.85;;;2.70;;
64932;SDS011;51446;53.850;10.662;2024-02-21T06:58:19;4.80;;;2.47;;
64932;SDS011;51446;53.850;10.662;2024-02-21T07:00:44;5.70;;;2.80;;
64932;SDS011;51446;53.850;10.662;2024-02-21T07:03:09;4.47;;;2.80;;
64932;SDS011;51446;53.850;10.662;2024-02-21T07:05:35;8.97;;;2.40;;
64932;SDS011;51446;53.850;10.662;2024-02-21T07:08:00;5.37;;;2.40;;
64932;SDS011;51446;53.850;10.662;2024-02-21T07:10:25;6.77;;;2.30;;
64932;SDS011;51446;53.850;10.662;2024-02-21T07:12:52;6.35;;;2.60;;
64932;SDS011;51446;53.850;10.662;2024-02-21T07:15:18;4.03;;;2.30;;
64932;SDS011;51446;53.850;10.662;2024-02-21T07:17:43;5.47;;;2.67;;
64932;SDS011;51446;53.850;10.662;2024-02-21T07:20:08;7.47;;;2.63;;
64932;SDS011;51446;53.850;10.662;2024-02-21T07:22:34;10.05;;;2.53;;
64932;SDS011;51446;53.850;10.662;2024-02-21T07:24:59;3.13;;;2.00;;
64932;SDS011;51446;53.850;10.662;2024-02-21T07:27:24;3.87;;;1.90;;
64932;SDS011;51446;53.850;10.662;2024-02-21T07:29:52;3.13;;;2.10;;
64932;SDS011;51446;53.850;10.662;2024-02-21T07:32:18;3.45;;;1.83;;
64932;SDS011;51446;53.850;10.662;2024-02-21T07:34:44;4.23;;;2.20;;
64932;SDS011;51446;53.850;10.662;2024-02-21T07:37:10;4.45;;;2.20;;
64932;SDS011;51446;53.850;10.662;2024-02-21T07:39:36;2.10;;;1.90;;
64932;SDS011;51446;53.850;10.662;2024-02-21T07:42:02;5.07;;;2.65;;
64932;SDS011;51446;53.850;10.662;2024-02-21T07:44:27;2.77;;;2.00;;
64932;SDS011;51446;53.850;10.662;2024-02-21T07:46:53;4.93;;;2.27;;
64932;SDS011;51446;53.850;10.662;2024-02-21T07:49:18;6.47;;;2.70;;
64932;SDS011;51446;53.850;10.662;2024-02-21T07:51:43;3.30;;;2.30;;
64932;SDS011;51446;53.850;10.662;2024-02-21T07:54:08;5.93;;;2.83;;
64932;SDS011;51446;53.850;10.662;2024-02-21T07:56:34;7.87;;;2.97;;
64932;SDS011;51446;53.850;10.662;2024-02-21T07:58:59;6.97;;;2.50;;
64932;SDS011;51446;53.850;10.662;2024-02-21T08:01:26;4.38;;;2.65;;
64932;SDS011;51446;53.850;10.662;2024-02-21T08:03:51;4.90;;;3.00;;
64932;SDS011;51446;53.850;10.662;2024-02-21T08:06:16;6.23;;;2.83;;
64932;SDS011;51446;53.850;10.662;2024-02-21T08:08:41;5.17;;;3.10;;
64932;SDS011;51446;53.850;10.662;2024-02-21T08:11:06;6.00;;;2.80;;
64932;SDS011;51446;53.850;10.662;2024-02-21T08:13:32;7.70;;;2.33;;
64932;SDS011;51446;53.850;10.662;2024-02-21T08:15:57;3.20;;;2.30;;
64932;SDS011;51446;53.850;10.662;2024-02-21T08:18:22;5.83;;;2.20;;
64932;SDS011;51446;53.850;10.662;2024-02-21T08:20:48;4.50;;;2.27;;
64932;SDS011;51446;53.850;10.662;2024-02-21T08:23:15;6.82;;;2.53;;
64932;SDS011;51446;53.850;10.662;2024-02-21T08:25:41;5.43;;;2.47;;
64932;SDS011;51446;53.850;10.662;2024-02-21T08:28:07;7.10;;;2.70;;
64932;SDS011;51446;53.850;10.662;2024-02-21T08:30:33;14.90;;;3.05;;
64932;SDS011;51446;53.850;10.662;2024-02-21T08:32:58;7.90;;;2.70;;
64932;SDS011;51446;53.850;10.662;2024-02-21T08:35:23;8.98;;;2.33;;
64932;SDS011;51446;53.850;10.662;2024-02-21T08:37:49;7.55;;;2.45;;
64932;SDS011;51446;53.850;10.662;2024-02-21T08:40:16;5.23;;;1.80;;
64932;SDS011;51446;53.850;10.662;2024-02-21T08:42:46;6.85;;;1.80;;
64932;SDS011;51446;53.850;10.662;2024-02-21T08:45:11;9.20;;;1.90;;
64932;SDS011;51446;53.850;10.662;2024-02-21T08:47:39;6.33;;;1.90;;
64932;SDS011;51446;53.850;10.662;2024-02-21T08:50:05;6.25;;;1.75;;
64932;SDS011;51446;53.850;10.662;2024-02-21T08:52:31;6.88;;;1.50;;
64932;SDS011;51446;53.850;10.662;2024-02-21T08:54:56;6.63;;;1.57;;
64932;SDS011;51446;53.850;10.662;2024-02-21T08:57:21;13.47;;;2.93;;
64932;SDS011;51446;53.850;10.662;2024-02-21T08:59:47;8.07;;;1.73;;
64932;SDS011;51446;53.850;10.662;2024-02-21T09:02:12;9.70;;;1.77;;
64932;SDS011;51446;53.850;10.662;2024-02-21T09:04:38;7.97;;;1.77;;
64932;SDS011;51446;53.850;10.662;2024-02-21T09:07:03;9.30;;;1.43;;
64932;SDS011;51446;53.850;10.662;2024-02-21T09:09:30;14.73;;;2.10;;
64932;SDS011;51446;53.850;10.662;2024-02-21T09:11:57;13.40;;;1.83;;
64932;SDS011;51446;53.850;10.662;2024-02-21T09:14:23;8.77;;;1.70;;
64932;SDS011;51446;53.850;10.662;2024-02-21T09:16:49;12.65;;;2.17;;
64932;SDS011;51446;53.850;10.662;2024-02-21T09:19:14;10.33;;;2.20;;
64932;SDS011;51446;53.850;10.662;2024-02-21T09:21:39;10.07;;;2.07;;
64932;SDS011;51446;53.850;10.662;2024-02-21T09:24:06;10.50;;;2.03;;
64932;SDS011;51446;53.850;10.662;2024-02-21T09:26:31;17.92;;;2.92;;
64932;SDS011;51446;53.850;10.662;2024-02-21T09:28:56;10.43;;;2.38;;
64932;SDS011;51446;53.850;10.662;2024-02-21T09:31:22;11.23;;;2.70;;
64932;SDS011;51446;53.850;10.662;2024-02-21T09:33:47;13.97;;;2.67;;
64932;SDS011;51446;53.850;10.662;2024-02-21T09:36:12;22.33;;;3.37;;
64932;SDS011;51446;53.850;10.662;2024-02-21T09:38:39;10.50;;;1.77;;
64932;SDS011;51446;53.850;10.662;2024-02-21T09:41:14;15.30;;;2.50;;
64932;SDS011;51446;53.850;10.662;2024-02-21T09:43:46;12.40;;;2.40;;
64932;SDS011;51446;53.850;10.662;2024-02-21T09:46:16;12.50;;;2.47;;
64932;SDS011;51446;53.850;10.662;2024-02-21T09:48:53;19.52;;;3.83;;
64932;SDS011;51446;53.850;10.662;2024-02-21T09:51:23;13.60;;;2.33;;
64932;SDS011;51446;53.850;10.662;2024-02-21T09:53:51;9.38;;;2.33;;
64932;SDS011;51446;53.850;10.662;2024-02-21T09:56:18;8.38;;;2.08;;
64932;SDS011;51446;53.850;10.662;2024-02-21T09:58:43;10.10;;;2.17;;
64932;SDS011;51446;53.850;10.662;2024-02-21T10:01:08;14.20;;;3.33;;
64932;SDS011;51446;53.850;10.662;2024-02-21T10:03:34;10.13;;;2.90;;
64932;SDS011;51446;53.850;10.662;2024-02-21T10:05:59;13.13;;;1.97;;
64932;SDS011;51446;53.850;10.662;2024-02-21T10:08:26;13.05;;;2.97;;
64932;SDS011;51446;53.850;10.662;2024-02-21T10:10:52;14.63;;;2.80;;
64932;SDS011;51446;53.850;10.662;2024-02-21T10:13:28;14.68;;;2.53;;
64932;SDS011;51446;53.850;10.662;2024-02-21T10:16:04;12.82;;;2.10;;
64932;SDS011;51446;53.850;10.662;2024-02-21T10:18:30;11.07;;;2.45;;
64932;SDS011;51446;53.850;10.662;2024-02-21T10:21:00;14.27;;;2.33;;
64932;SDS011;51446;53.850;10.662;2024-02-21T10:23:28;9.57;;;2.50;;
64932;SDS011;51446;53.850;10.662;2024-02-21T10:25:54;18.10;;;3.10;;
64932;SDS011;51446;53.850;10.662;2024-02-21T10:28:19;14.23;;;3.00;;
64932;SDS011;51446;53.850;10.662;2024-02-21T10:30:51;10.27;;;2.42;;
64932;SDS011;51446;53.850;10.662;2024-02-21T10:33:17;8.48;;;2.25;;
64932;SDS011;51446;53.850;10.662;2024-02-21T10:35:46;14.02;;;2.63;;
64932;SDS011;51446;53.850;10.662;2024-02-21T10:38:12;11.88;;;2.42;;
64932;SDS011;51446;53.850;10.662;2024-02-21T10:40:38;10.18;;;2.45;;
64932;SDS011;51446;53.850;10.662;2024-02-21T10:43:03;11.82;;;2.20;;
64932;SDS011;51446;53.850;10.662;2024-02-21T10:45:37;8.90;;;2.07;;
64932;SDS011;51446;53.850;10.662;2024-02-21T10:48:12;10.83;;;2.20;;
64932;SDS011;51446;53.850;10.662;2024-02-21T10:53:15;30.92;;;5.55;;
64932;SDS011;51446;53.850;10.662;2024-02-21T10:56:18;62.78;;;5.63;;
64932;SDS011;51446;53.850;10.662;2024-02-21T10:58:53;13.55;;;2.38;;
64932;SDS011;51446;53.850;10.662;2024-02-21T11:01:20;19.03;;;2.60;;
64932;SDS011;51446;53.850;10.662;2024-02-21T11:03:47;20.75;;;3.38;;
64932;SDS011;51446;53.850;10.662;2024-02-21T11:06:15;16.08;;;2.83;;
64932;SDS011;51446;53.850;10.662;2024-02-21T11:08:42;10.82;;;2.33;;
64932;SDS011;51446;53.850;10.662;2024-02-21T11:11:11;9.20;;;2.53;;
64932;SDS011;51446;53.850;10.662;2024-02-21T11:13:42;15.63;;;2.80;;
64932;SDS011;51446;53.850;10.662;2024-02-21T11:16:11;9.15;;;2.50;;
64932;SDS011;51446;53.850;10.662;2024-02-21T11:18:46;11.40;;;2.60;;
64932;SDS011;51446;53.850;10.662;2024-02-21T11:21:11;11.10;;;3.63;;
64932;SDS011;51446;53.850;10.662;2024-02-21T11:23:36;13.33;;;3.50;;
64932;SDS011;51446;53.850;10.662;2024-02-21T11:26:20;14.47;;;2.93;;
64932;SDS011;51446;53.850;10.662;2024-02-21T11:28:55;11.80;;;3.38;;
64932;SDS011;51446;53.850;10.662;2024-02-21T11:31:21;12.63;;;3.08;;
64932;SDS011;51446;53.850;10.662;2024-02-21T11:33:46;10.93;;;3.10;;
64932;SDS011;51446;53.850;10.662;2024-02-21T11:36:23;6.95;;;2.45;;
64932;SDS011;51446;53.850;10.662;2024-02-21T11:38:50;13.80;;;2.47;;
64932;SDS011;51446;53.850;10.662;2024-02-21T11:41:17;7.50;;;2.63;;
64932;SDS011;51446;53.850;10.662;2024-02-21T11:43:42;10.48;;;3.33;;
64932;SDS011;51446;53.850;10.662;2024-02-21T11:46:08;11.45;;;3.80;;
64932;SDS011;51446;53.850;10.662;2024-02-21T11:48:34;12.35;;;4.13;;
64932;SDS011;51446;53.850;10.662;2024-02-21T11:50:59;14.00;;;4.50;;
64932;SDS011;51446;53.850;10.662;2024-02-21T11:53:26;11.25;;;3.97;;
64932;SDS011;51446;53.850;10.662;2024-02-21T11:55:55;8.93;;;3.30;;
64932;SDS011;51446;53.850;10.662;2024-02-21T11:58:21;7.60;;;2.72;;
64932;SDS011;51446;53.850;10.662;2024-02-21T12:00:47;6.40;;;3.37;;
64932;SDS011;51446;53.850;10.662;2024-02-21T12:03:13;8.23;;;3.33;;
64932;SDS011;51446;53.850;10.662;2024-02-21T12:05:40;6.53;;;3.23;;
64932;SDS011;51446;53.850;10.662;2024-02-21T12:08:06;9.40;;;3.38;;
64932;SDS011;51446;53.850;10.662;2024-02-21T12:10:32;7.10;;;4.25;;
64932;SDS011;51446;53.850;10.662;2024-02-21T12:13:07;5.07;;;3.73;;
64932;SDS011;51446;53.850;10.662;2024-02-21T12:15:33;6.50;;;4.40;;
64932;SDS011;51446;53.850;10.662;2024-02-21T12:17:58;10.43;;;5.27;;
64932;SDS011;51446;53.850;10.662;2024-02-21T12:20:25;8.95;;;5.70;;
64932;SDS011;51446;53.850;10.662;2024-02-21T12:22:50;9.65;;;6.05;;
64932;SDS011;51446;53.850;10.662;2024-02-21T12:25:20;9.15;;;6.68;;
64932;SDS011;51446;53.850;10.662;2024-02-21T12:27:51;11.57;;;7.32;;
64932;SDS011;51446;53.850;10.662;2024-02-21T12:30:17;13.25;;;7.18;;
64932;SDS011;51446;53.850;10.662;2024-02-21T12:32:42;12.63;;;7.82;;
64932;SDS011;51446;53.850;10.662;2024-02-21T12:35:08;14.07;;;9.18;;
64932;SDS011;51446;53.850;10.662;2024-02-21T12:37:33;13.00;;;8.27;;
64932;SDS011;51446;53.850;10.662;2024-02-21T12:40:00;16.77;;;9.00;;
64932;SDS011;51446;53.850;10.662;2024-02-21T12:42:25;13.80;;;8.82;;
64932;SDS011;51446;53.850;10.662;2024-02-21T12:44:51;18.00;;;10.52;;
64932;SDS011;51446;53.850;10.662;2024-02-21T12:47:17;18.25;;;10.88;;
64932;SDS011;51446;53.850;10.662;2024-02-21T12:49:44;20.58;;;11.75;;
64932;SDS011;51446;53.850;10.662;2024-02-21T12:52:10;19.25;;;12.23;;
64932;SDS011;51446;53.850;10.662;2024-02-21T12:54:36;17.23;;;10.63;;
64932;SDS011;51446;53.850;10.662;2024-02-21T12:57:01;23.93;;;11.97;;
64932;SDS011;51446;53.850;10.662;2024-02-21T12:59:29;23.20;;;11.45;;
64932;SDS011;51446;53.850;10.662;2024-02-21T13:01:54;18.95;;;11.90;;
64932;SDS011;51446;53.850;10.662;2024-02-21T13:04:20;22.57;;;11.80;;
64932;SDS011;51446;53.850;10.662;2024-02-21T13:06:47;17.30;;;11.10;;
64932;SDS011;51446;53.850;10.662;2024-02-21T13:09:13;22.02;;;11.45;;
64932;SDS011;51446;53.850;10.662;2024-02-21T13:11:39;16.60;;;10.73;;
64932;SDS011;51446;53.850;10.662;2024-02-21T13:14:07;17.08;;;10.23;;
64932;SDS011;51446;53.850;10.662;2024-02-21T13:16:32;17.02;;;9.95;;
64932;SDS011;51446;53.850;10.662;2024-02-21T13:19:04;16.33;;;9.73;;
64932;SDS011;51446;53.850;10.662;2024-02-21T13:21:30;14.27;;;9.83;;
64932;SDS011;51446;53.850;10.662;2024-02-21T13:23:55;16.55;;;9.88;;
64932;SDS011;51446;53.850;10.662;2024-02-21T13:26:21;14.63;;;9.27;;
64932;SDS011;51446;53.850;10.662;2024-02-21T13:28:47;17.70;;;9.97;;
64932;SDS011;51446;53.850;10.662;2024-02-21T13:31:13;14.50;;;9.57;;
64932;SDS011;51446;53.850;10.662;2024-02-21T13:33:38;16.50;;;9.33;;
64932;SDS011;51446;53.850;10.662;2024-02-21T13:36:04;16.48;;;9.88;;
64932;SDS011;51446;53.850;10.662;2024-02-21T13:38:29;18.57;;;10.17;;
64932;SDS011;51446;53.850;10.662;2024-02-21T13:40:54;19.00;;;10.30;;
64932;SDS011;51446;53.850;10.662;2024-02-21T13:43:20;19.50;;;10.57;;
64932;SDS011;51446;53.850;10.662;2024-02-21T13:45:56;15.55;;;9.73;;
64932;SDS011;51446;53.850;10.662;2024-02-21T13:48:23;15.25;;;9.10;;
64932;SDS011;51446;53.850;10.662;2024-02-21T13:50:50;17.17;;;9.95;;
64932;SDS011;51446;53.850;10.662;2024-02-21T13:53:15;14.77;;;9.03;;
64932;SDS011;51446;53.850;10.662;2024-02-21T13:55:43;21.02;;;9.35;;
64932;SDS011;51446;53.850;10.662;2024-02-21T13:58:09;15.10;;;9.07;;
64932;SDS011;51446;53.850;10.662;2024-02-21T14:00:34;16.07;;;9.03;;
64932;SDS011;51446;53.850;10.662;2024-02-21T14:03:01;17.27;;;9.60;;
64932;SDS011;51446;53.850;10.662;2024-02-21T14:05:26;20.10;;;10.00;;
64932;SDS011;51446;53.850;10.662;2024-02-21T14:07:51;17.33;;;9.30;;
64932;SDS011;51446;53.850;10.662;2024-02-21T14:10:19;19.13;;;9.75;;
64932;SDS011;51446;53.850;10.662;2024-02-21T14:12:47;17.65;;;9.55;;
64932;SDS011;51446;53.850;10.662;2024-02-21T14:15:13;17.87;;;10.07;;